Jennie K — WDE9719 — position and weather

sailwx.info

Track history (hours):
 
Tides and Currents Weather Stations Pressure Air Temp Water Temp Dewpoint Dewpoint Depression Visibility Wind Speed Wind Dir Waves Ship Positions

Jennie K

Owner: SCF Waxler Marine LLC, St Rose, LA. More information available from US FCC via Universal Licensing System and Coast Guard Vessel Documentation Center.

Last reported at 2018-Feb-10 04:25 UTC. Time now 2018-Feb-20 00:20 UTC.
Position N 32°46' W 091°09'.
Warning: this ship's position is 9 days out of date.

Length 65 m; draft 3.1 m.

Type: Tow > 200 m length. MMSI: 367420450.

Date/timePositionNaut miles runAvg speedWind from/ knotsBaromVisibWave heightAir tempDewpointWater temp
2018-Feb-10 04:25N 32°46' W 091°09'2 3.8
2018-Feb-10 03:54N 32°44' W 091°08'3 3.0
2018-Feb-10 02:51N 32°44' W 091°05'4 2.5
2018-Feb-10 01:09N 32°40' W 091°07'1 4.1
2018-Feb-10 01:00N 32°40' W 091°08'2 3.5
2018-Feb-10 00:29N 32°39' W 091°09'2 3.2
2018-Feb-10 00:00N 32°37' W 091°09'2 3.3
2018-Feb-09 23:30N 32°36' W 091°08'2 3.6
2018-Feb-09 23:00N 32°34' W 091°07'1 3.7
2018-Feb-09 22:46N 32°34' W 091°06'5 4.0
2018-Feb-09 21:30N 32°29' W 091°07'0 0.0
2018-Feb-09 21:00N 32°29' W 091°07'1 0.8
2018-Feb-09 20:00N 32°28' W 091°06'7 2.9
2018-Feb-09 17:30N 32°24' W 090°59'0 0.5
2018-Feb-09 17:00N 32°24' W 090°59'2 3.5
2018-Feb-09 16:30N 32°22' W 091°00'3 3.0
2018-Feb-09 15:30N 32°21' W 090°57'3 3.1
2018-Feb-09 14:30N 32°19' W 090°54'2 4.1
2018-Feb-09 14:00N 32°17' W 090°56'2 4.2
2018-Feb-09 13:30N 32°16' W 090°58'2 3.6
2018-Feb-09 13:00N 32°14' W 090°59'0 0.8
2018-Feb-09 12:30N 32°14' W 090°59'3 3.0
2018-Feb-09 11:30N 32°11' W 090°60'6 2.5
2018-Feb-09 09:00N 32°08' W 091°06'  
2018-Feb-01 06:51N 31°57' W 091°11'5 6.5
2018-Feb-01 06:06N 31°59' W 091°06'1 6.9
2018-Feb-01 05:58N 31°60' W 091°05'4 8.0
2018-Feb-01 05:29N 32°03' W 091°03'3 7.1
2018-Feb-01 04:59N 32°06' W 091°06'2 3.6
2018-Feb-01 04:30N 32°08' W 091°06'4 7.3
2018-Feb-01 04:00N 32°07' W 091°02'7 7.3
2018-Feb-01 03:00N 32°14' W 090°59'4 7.3
2018-Feb-01 02:30N 32°17' W 090°56'4 7.2
2018-Feb-01 02:00N 32°20' W 090°54'2 4.4
2018-Feb-01 01:30N 32°21' W 090°56'3 6.1
2018-Feb-01 01:00N 32°21' W 090°60'4 7.2
2018-Feb-01 00:30N 32°25' W 090°60'3 6.2
2018-Feb-01 00:00N 32°26' W 091°03'5 5.4
2018-Jan-31 23:00N 32°31' W 091°07'4 7.2
2018-Jan-31 22:30N 32°34' W 091°07'  
Track history (hours):
 
Tides and Currents Weather Stations Pressure Air Temp Water Temp Dewpoint Dewpoint Depression Visibility Wind Speed Wind Dir Waves Ship Positions

Jennie K

Owner: SCF Waxler Marine LLC, St Rose, LA. More information available from US FCC via Universal Licensing System and Coast Guard Vessel Documentation Center.

Last reported at 2018-Feb-10 04:25 UTC. Time now 2018-Feb-20 00:20 UTC.
Position N 32°46' W 091°09'.
Warning: this ship's position is 9 days out of date.

Length 65 m; draft 3.1 m.

Type: Tow > 200 m length. MMSI: 367420450.

Date/timePositionNaut miles runAvg speedWind from/ knotsBaromVisibWave heightAir tempDewpointWater temp
2018-Feb-10 04:25N 32°46' W 091°09'2 3.8
2018-Feb-10 03:54N 32°44' W 091°08'3 3.0
2018-Feb-10 02:51N 32°44' W 091°05'4 2.5
2018-Feb-10 01:09N 32°40' W 091°07'1 4.1
2018-Feb-10 01:00N 32°40' W 091°08'2 3.5
2018-Feb-10 00:29N 32°39' W 091°09'2 3.2
2018-Feb-10 00:00N 32°37' W 091°09'2 3.3
2018-Feb-09 23:30N 32°36' W 091°08'2 3.6
2018-Feb-09 23:00N 32°34' W 091°07'1 3.7
2018-Feb-09 22:46N 32°34' W 091°06'5 4.0
2018-Feb-09 21:30N 32°29' W 091°07'0 0.0
2018-Feb-09 21:00N 32°29' W 091°07'1 0.8
2018-Feb-09 20:00N 32°28' W 091°06'7 2.9
2018-Feb-09 17:30N 32°24' W 090°59'0 0.5
2018-Feb-09 17:00N 32°24' W 090°59'2 3.5
2018-Feb-09 16:30N 32°22' W 091°00'3 3.0
2018-Feb-09 15:30N 32°21' W 090°57'3 3.1
2018-Feb-09 14:30N 32°19' W 090°54'2 4.1
2018-Feb-09 14:00N 32°17' W 090°56'2 4.2
2018-Feb-09 13:30N 32°16' W 090°58'2 3.6
2018-Feb-09 13:00N 32°14' W 090°59'0 0.8
2018-Feb-09 12:30N 32°14' W 090°59'3 3.0
2018-Feb-09 11:30N 32°11' W 090°60'6 2.5
2018-Feb-09 09:00N 32°08' W 091°06'  
2018-Feb-01 06:51N 31°57' W 091°11'5 6.5
2018-Feb-01 06:06N 31°59' W 091°06'1 6.9
2018-Feb-01 05:58N 31°60' W 091°05'4 8.0
2018-Feb-01 05:29N 32°03' W 091°03'3 7.1
2018-Feb-01 04:59N 32°06' W 091°06'2 3.6
2018-Feb-01 04:30N 32°08' W 091°06'4 7.3
2018-Feb-01 04:00N 32°07' W 091°02'7 7.3
2018-Feb-01 03:00N 32°14' W 090°59'4 7.3
2018-Feb-01 02:30N 32°17' W 090°56'4 7.2
2018-Feb-01 02:00N 32°20' W 090°54'2 4.4
2018-Feb-01 01:30N 32°21' W 090°56'3 6.1
2018-Feb-01 01:00N 32°21' W 090°60'4 7.2
2018-Feb-01 00:30N 32°25' W 090°60'3 6.2
2018-Feb-01 00:00N 32°26' W 091°03'5 5.4
2018-Jan-31 23:00N 32°31' W 091°07'4 7.2
2018-Jan-31 22:30N 32°34' W 091°07'  

Dump ship's entire track history